createdAt,value
2018-04-07T00:00:29.270Z,57.01
2018-04-07T00:02:55.061Z,56.28
2018-04-07T00:05:20.850Z,57.89
2018-04-07T00:07:46.653Z,56.31
2018-04-07T00:10:12.435Z,57.17
2018-04-07T00:12:38.215Z,56.58
2018-04-07T00:15:04.012Z,56.27
2018-04-07T00:17:29.820Z,57.08
2018-04-07T00:19:55.627Z,57.09
2018-04-07T00:22:21.452Z,58.23
2018-04-07T00:24:47.275Z,56.60
2018-04-07T00:27:13.083Z,58.02
2018-04-07T00:29:38.879Z,57.99
2018-04-07T00:32:04.698Z,57.34
2018-04-07T00:34:30.510Z,58.12
2018-04-07T00:36:56.327Z,56.79
2018-04-07T00:39:22.144Z,56.70
2018-04-07T00:41:47.940Z,56.46
2018-04-07T00:44:13.730Z,56.23
2018-04-07T00:46:39.533Z,56.96
2018-04-07T00:49:05.332Z,56.81
2018-04-07T00:51:31.123Z,56.09
2018-04-07T00:53:57.053Z,54.21
2018-04-07T00:56:22.840Z,52.95
2018-04-07T00:58:48.632Z,54.79
2018-04-07T01:01:14.466Z,55.07
2018-04-07T01:03:40.247Z,55.59
2018-04-07T01:06:06.054Z,56.60
2018-04-07T01:08:31.864Z,52.60
2018-04-07T01:10:57.667Z,55.30
2018-04-07T01:13:23.475Z,52.89
2018-04-07T01:15:49.300Z,54.71
2018-04-07T01:18:15.099Z,54.37
2018-04-07T01:20:40.896Z,54.42
2018-04-07T01:23:06.698Z,52.05
2018-04-07T01:25:32.487Z,53.18
2018-04-07T01:27:58.300Z,51.92
2018-04-07T01:30:24.087Z,54.42
2018-04-07T01:32:49.885Z,54.75
2018-04-07T01:35:15.695Z,55.51
2018-04-07T01:37:41.515Z,55.24
2018-04-07T01:40:07.318Z,54.98
2018-04-07T01:42:33.171Z,55.57
2018-04-07T01:44:58.951Z,55.23
2018-04-07T01:47:24.755Z,55.36
2018-04-07T01:49:50.559Z,56.10
2018-04-07T01:52:16.354Z,55.70
2018-04-07T01:54:42.173Z,55.64
2018-04-07T01:57:07.970Z,55.48
2018-04-07T01:59:33.755Z,55.39
2018-04-07T02:01:59.556Z,56.03
2018-04-07T02:04:25.375Z,56.32
2018-04-07T02:06:51.194Z,56.01
2018-04-07T02:09:16.983Z,55.70
2018-04-07T02:11:42.766Z,56.10
2018-04-07T02:14:08.575Z,55.93
2018-04-07T02:16:34.396Z,56.10
2018-04-07T02:19:00.207Z,56.13
2018-04-07T02:21:26.008Z,56.00
2018-04-07T02:23:51.786Z,56.51
2018-04-07T02:26:17.597Z,56.64
2018-04-07T02:28:43.394Z,56.68
2018-04-07T02:31:09.179Z,57.07
2018-04-07T02:33:35.018Z,57.46
2018-04-07T02:36:00.815Z,56.63
2018-04-07T02:38:26.587Z,56.95
2018-04-07T02:40:52.392Z,56.95
2018-04-07T02:43:18.222Z,57.19
2018-04-07T02:45:44.015Z,57.09
2018-04-07T02:48:10.208Z,57.25
2018-04-07T02:50:36.025Z,56.83
2018-04-07T02:53:01.851Z,56.89
2018-04-07T02:55:27.647Z,57.81
2018-04-07T02:57:53.443Z,57.59
2018-04-07T03:00:19.228Z,57.34
2018-04-07T03:02:45.043Z,57.77
2018-04-07T03:05:10.821Z,57.69
2018-04-07T03:07:36.607Z,57.44
2018-04-07T03:10:02.470Z,57.41
2018-04-07T03:12:28.245Z,57.89
2018-04-07T03:14:54.030Z,57.92
2018-04-07T03:17:19.839Z,58.22
2018-04-07T03:19:45.618Z,58.27
2018-04-07T03:22:11.460Z,58.41
2018-04-07T03:24:37.258Z,58.08
2018-04-07T03:27:03.055Z,58.26
2018-04-07T03:29:28.839Z,58.47
2018-04-07T03:31:54.718Z,58.69
2018-04-07T03:34:20.526Z,58.44
2018-04-07T03:36:46.322Z,58.83
2018-04-07T03:39:12.143Z,58.95
2018-04-07T03:41:37.924Z,59.32
2018-04-07T03:44:03.721Z,59.11
2018-04-07T03:46:29.567Z,58.85
2018-04-07T03:48:55.381Z,58.94
2018-04-07T03:51:21.194Z,59.19
2018-04-07T03:53:47.296Z,59.42
2018-04-07T03:56:13.099Z,59.69
2018-04-07T03:58:38.891Z,58.98
2018-04-07T04:01:04.747Z,58.93
2018-04-07T04:03:30.585Z,59.15
2018-04-07T04:05:56.603Z,59.63
2018-04-07T04:08:22.414Z,60.77
2018-04-07T04:10:48.217Z,58.71
2018-04-07T04:13:14.011Z,58.83
2018-04-07T04:15:39.803Z,58.92
2018-04-07T04:18:05.879Z,59.04
2018-04-07T04:20:31.679Z,59.87
2018-04-07T04:22:57.467Z,58.94
2018-04-07T04:25:23.262Z,58.74
2018-04-07T04:27:49.069Z,59.29
2018-04-07T04:30:14.855Z,59.09
2018-04-07T04:32:40.647Z,59.22
2018-04-07T04:35:06.430Z,59.62
2018-04-07T04:37:32.236Z,59.05
2018-04-07T04:39:58.257Z,59.05
2018-04-07T04:42:24.074Z,59.93
2018-04-07T04:44:49.856Z,59.30
2018-04-07T04:47:15.659Z,59.35
2018-04-07T04:49:41.450Z,59.46
2018-04-07T04:52:07.255Z,59.40
2018-04-07T04:54:33.062Z,60.36
2018-04-07T04:56:58.843Z,59.74
2018-04-07T04:59:25.008Z,59.52
2018-04-07T05:01:50.820Z,59.29
2018-04-07T05:04:16.606Z,59.41
2018-04-07T05:06:42.402Z,59.76
2018-04-07T05:09:08.186Z,59.82
2018-04-07T05:11:33.966Z,59.60
2018-04-07T05:13:59.767Z,59.54
2018-04-07T05:16:25.577Z,59.77
2018-04-07T05:18:51.527Z,59.81
2018-04-07T05:21:17.683Z,59.56
2018-04-07T05:23:43.496Z,59.57
2018-04-07T05:26:09.288Z,60.27
2018-04-07T05:28:35.100Z,59.61
2018-04-07T05:31:01.020Z,59.39
2018-04-07T05:33:26.859Z,59.84
2018-04-07T05:35:52.654Z,60.40
2018-04-07T05:38:18.475Z,59.70
2018-04-07T05:40:44.275Z,61.57
2018-04-07T05:43:10.068Z,59.20
2018-04-07T05:45:36.480Z,58.92
2018-04-07T05:48:09.338Z,58.88
2018-04-07T05:50:35.311Z,58.94
2018-04-07T05:53:01.135Z,58.32
2018-04-07T05:55:26.960Z,58.63
2018-04-07T05:57:52.769Z,58.19
2018-04-07T06:00:18.592Z,57.92
2018-04-07T06:02:45.299Z,58.45
2018-04-07T06:05:11.173Z,58.88
2018-04-07T06:07:36.984Z,56.63
2018-04-07T06:10:02.814Z,56.29
2018-04-07T06:12:30.447Z,55.95
2018-04-07T06:14:56.376Z,56.00
2018-04-07T06:17:22.207Z,56.05
2018-04-07T06:19:48.035Z,56.49
2018-04-07T06:22:13.871Z,55.62
2018-04-07T06:24:40.172Z,55.74
2018-04-07T06:27:07.991Z,55.02
2018-04-07T06:29:33.817Z,55.15
2018-04-07T06:31:59.746Z,53.95
2018-04-07T06:34:25.572Z,53.76
2018-04-07T06:36:53.339Z,53.79
2018-04-07T06:39:20.440Z,53.24
2018-04-07T06:41:46.890Z,53.15
2018-04-07T06:44:13.401Z,52.76
2018-04-07T06:46:39.531Z,52.39
2018-04-07T06:49:05.700Z,51.74
2018-04-07T06:51:33.466Z,52.63
2018-04-07T06:53:59.520Z,51.76
2018-04-07T06:56:25.600Z,51.39
2018-04-07T06:58:51.481Z,50.67
2018-04-07T07:01:17.580Z,50.66
2018-04-07T07:03:43.689Z,51.62
2018-04-07T07:06:09.521Z,48.63
2018-04-07T07:08:35.363Z,49.23
2018-04-07T07:11:01.191Z,48.03
2018-04-07T07:13:26.979Z,48.78
2018-04-07T07:15:52.759Z,48.19
2018-04-07T07:18:18.602Z,47.53
2018-04-07T07:20:44.416Z,47.09
2018-04-07T07:23:10.212Z,47.58
2018-04-07T07:25:36.045Z,45.74
2018-04-07T07:28:01.832Z,45.12
2018-04-07T07:30:27.622Z,48.87
2018-04-07T07:32:53.614Z,47.98
2018-04-07T07:35:19.411Z,45.92
2018-04-07T07:37:45.211Z,45.27
2018-04-07T07:40:11.008Z,45.54
2018-04-07T07:42:36.823Z,44.98
2018-04-07T07:45:02.648Z,44.75
2018-04-07T07:47:28.454Z,44.85
2018-04-07T07:49:54.258Z,44.70
2018-04-07T07:52:20.051Z,44.52
2018-04-07T07:54:45.869Z,44.29
2018-04-07T07:57:11.674Z,44.23
2018-04-07T07:59:37.464Z,44.28
2018-04-07T08:02:03.296Z,43.86
2018-04-07T08:04:29.120Z,42.76
2018-04-07T08:06:54.920Z,43.92
2018-04-07T08:09:21.055Z,44.71
2018-04-07T08:11:46.842Z,43.38
2018-04-07T08:14:12.641Z,45.04
2018-04-07T08:16:38.437Z,42.93
2018-04-07T08:19:04.233Z,43.72
2018-04-07T08:21:30.051Z,43.24
2018-04-07T08:23:55.827Z,43.18
2018-04-07T08:26:21.616Z,42.48
2018-04-07T08:28:47.425Z,42.20
2018-04-07T08:31:13.232Z,42.90
2018-04-07T08:33:39.032Z,43.47
2018-04-07T08:36:04.814Z,42.19
2018-04-07T08:38:30.652Z,42.14
2018-04-07T08:40:56.471Z,42.35
2018-04-07T08:43:22.256Z,41.99
2018-04-07T08:45:48.060Z,41.85
2018-04-07T08:48:13.841Z,43.07
2018-04-07T08:50:39.655Z,41.73
2018-04-07T08:53:05.442Z,41.31
2018-04-07T08:55:31.374Z,41.83
2018-04-07T08:57:57.186Z,45.68
2018-04-07T09:00:22.994Z,41.91
2018-04-07T09:02:48.791Z,41.25
2018-04-07T09:05:14.607Z,41.50
2018-04-07T09:07:40.402Z,41.62
2018-04-07T09:10:06.193Z,40.90
2018-04-07T09:12:32.022Z,41.65
2018-04-07T09:14:57.803Z,40.46
2018-04-07T09:17:23.591Z,39.64
2018-04-07T09:19:49.425Z,40.43
2018-04-07T09:22:15.214Z,40.13
2018-04-07T09:24:41.001Z,40.00
2018-04-07T09:27:06.820Z,40.71
2018-04-07T09:29:32.606Z,39.88
2018-04-07T09:31:58.396Z,39.70
2018-04-07T09:34:24.228Z,40.15
2018-04-07T09:36:50.019Z,39.02
2018-04-07T09:39:15.829Z,39.98
2018-04-07T09:41:41.649Z,38.49
2018-04-07T09:44:07.456Z,39.14
2018-04-07T09:46:33.264Z,38.29
2018-04-07T09:48:59.077Z,37.69
2018-04-07T09:51:24.863Z,37.58
2018-04-07T09:53:50.923Z,37.13
2018-04-07T09:56:16.714Z,37.27
2018-04-07T09:58:42.518Z,36.95
2018-04-07T10:01:08.355Z,36.64
2018-04-07T10:03:34.155Z,37.71
2018-04-07T10:05:59.940Z,37.25
2018-04-07T10:08:25.760Z,37.06
2018-04-07T10:10:51.557Z,37.22
2018-04-07T10:13:17.343Z,37.27
2018-04-07T10:15:43.154Z,36.08
2018-04-07T10:18:08.937Z,36.32
2018-04-07T10:20:34.732Z,36.32
2018-04-07T10:23:00.536Z,36.24
2018-04-07T10:25:26.358Z,35.95
2018-04-07T10:27:52.148Z,35.73
2018-04-07T10:30:17.971Z,36.34
2018-04-07T10:32:43.783Z,35.71
2018-04-07T10:35:09.570Z,35.96
2018-04-07T10:37:35.363Z,35.91
2018-04-07T10:40:01.137Z,35.82
2018-04-07T10:42:26.950Z,35.59
2018-04-07T10:44:52.741Z,35.97
2018-04-07T10:47:18.567Z,35.85
2018-04-07T10:49:44.354Z,35.44
2018-04-07T10:52:10.151Z,35.09
2018-04-07T10:54:36.193Z,36.15
2018-04-07T10:57:02.002Z,35.75
2018-04-07T10:59:27.782Z,36.19
2018-04-07T11:01:53.595Z,36.04
2018-04-07T11:04:19.376Z,36.18
2018-04-07T11:06:45.173Z,35.74
2018-04-07T11:09:10.985Z,35.52
2018-04-07T11:11:36.778Z,36.11
2018-04-07T11:14:02.588Z,35.36
2018-04-07T11:16:28.386Z,35.78
2018-04-07T11:21:26.827Z,36.16
2018-04-07T11:23:52.627Z,35.89
2018-04-07T11:26:18.447Z,35.25
2018-04-07T11:28:44.259Z,35.92
2018-04-07T11:31:10.046Z,36.10
2018-04-07T11:33:35.858Z,36.11
2018-04-07T11:36:01.652Z,36.79
2018-04-07T11:38:27.455Z,35.57
2018-04-07T11:40:53.247Z,35.83
2018-04-07T11:43:19.276Z,35.48
2018-04-07T11:45:45.058Z,37.13
2018-04-07T11:48:10.875Z,36.27
2018-04-07T11:50:36.716Z,36.62
2018-04-07T11:53:02.522Z,36.44
2018-04-07T11:55:28.308Z,35.53
2018-04-07T11:57:54.122Z,36.75
2018-04-07T12:00:19.923Z,35.30
2018-04-07T12:02:45.726Z,35.94
2018-04-07T12:05:11.521Z,35.67
2018-04-07T12:07:37.319Z,35.35
2018-04-07T12:10:03.259Z,35.30
2018-04-07T12:12:29.053Z,35.06
2018-04-07T12:14:54.873Z,35.05
2018-04-07T12:17:20.695Z,34.57
2018-04-07T12:19:46.499Z,33.09
2018-04-07T12:22:12.306Z,34.09
2018-04-07T12:24:38.337Z,33.57
2018-04-07T12:27:04.142Z,33.00
2018-04-07T12:29:29.926Z,33.52
2018-04-07T12:31:55.746Z,33.05
2018-04-07T12:34:21.539Z,33.75
2018-04-07T12:36:47.326Z,32.32
2018-04-07T12:39:13.157Z,32.62
2018-04-07T12:41:38.950Z,32.28
2018-04-07T12:44:04.767Z,31.97
2018-04-07T12:46:30.592Z,32.64
2018-04-07T12:48:56.373Z,32.12
2018-04-07T12:51:22.163Z,29.65
2018-04-07T12:53:48.070Z,29.68
2018-04-07T12:56:13.871Z,29.29
2018-04-07T12:58:39.677Z,28.40
2018-04-07T13:01:05.488Z,28.48
2018-04-07T13:03:31.304Z,29.30
2018-04-07T13:05:57.095Z,29.12
2018-04-07T13:08:22.893Z,28.40
2018-04-07T13:10:48.679Z,28.31
2018-04-07T13:13:14.557Z,28.51
2018-04-07T13:15:40.349Z,29.07
2018-04-07T13:18:06.135Z,30.08
2018-04-07T13:20:31.981Z,28.59
2018-04-07T13:22:57.784Z,28.62
2018-04-07T13:25:23.586Z,28.38
2018-04-07T13:27:49.375Z,27.98
2018-04-07T13:30:15.162Z,29.30
2018-04-07T13:32:40.943Z,26.92
2018-04-07T13:35:06.779Z,26.56
2018-04-07T13:37:32.582Z,27.79
2018-04-07T13:39:58.371Z,27.86
2018-04-07T13:42:24.159Z,29.04
2018-04-07T13:44:50.024Z,28.06
2018-04-07T13:47:15.831Z,28.05
2018-04-07T13:49:41.642Z,28.07
2018-04-07T13:52:07.424Z,27.42
2018-04-07T13:54:33.223Z,27.17
2018-04-07T13:56:59.060Z,26.99
2018-04-07T13:59:24.859Z,27.03
2018-04-07T14:01:50.646Z,26.55
2018-04-07T14:04:16.427Z,27.96
2018-04-07T14:06:42.221Z,28.73
2018-04-07T14:09:08.048Z,27.67
2018-04-07T14:11:33.855Z,26.75
2018-04-07T14:13:59.668Z,26.90
2018-04-07T14:16:25.461Z,27.61
2018-04-07T14:18:51.281Z,27.60
2018-04-07T14:21:17.079Z,29.15
2018-04-07T14:23:42.900Z,29.04
2018-04-07T14:26:08.690Z,28.53
2018-04-07T14:28:34.518Z,27.93
2018-04-07T14:31:00.323Z,27.96
2018-04-07T14:33:26.119Z,27.72
2018-04-07T14:35:51.907Z,27.09
2018-04-07T14:38:17.706Z,27.98
2018-04-07T14:40:43.506Z,29.11
2018-04-07T14:43:09.301Z,29.51
2018-04-07T14:45:35.119Z,30.10
2018-04-07T14:48:00.900Z,29.79
2018-04-07T14:50:26.693Z,30.05
2018-04-07T14:52:52.507Z,29.51
2018-04-07T14:55:18.320Z,30.33
2018-04-07T14:57:44.113Z,30.25
2018-04-07T15:00:09.907Z,31.49
2018-04-07T15:02:35.708Z,30.55
2018-04-07T15:05:01.519Z,30.15
2018-04-07T15:07:27.330Z,30.27
2018-04-07T15:09:53.141Z,31.46
2018-04-07T15:12:18.926Z,30.14
2018-04-07T15:14:44.765Z,29.70
2018-04-07T15:17:10.572Z,29.40
2018-04-07T15:19:36.364Z,29.40
2018-04-07T15:22:02.173Z,29.31
2018-04-07T15:24:27.983Z,29.67
2018-04-07T15:26:53.819Z,28.70
2018-04-07T15:29:19.623Z,28.90
2018-04-07T15:31:45.419Z,29.26
2018-04-07T15:34:11.231Z,29.13
2018-04-07T15:36:37.063Z,29.72
2018-04-07T15:39:02.898Z,29.87
2018-04-07T15:41:28.679Z,29.48
2018-04-07T15:43:54.466Z,29.31
2018-04-07T15:46:20.257Z,30.42
2018-04-07T15:48:46.060Z,30.31
2018-04-07T15:51:11.856Z,30.73
2018-04-07T15:53:37.662Z,30.62
2018-04-07T15:56:03.472Z,31.02
2018-04-07T15:58:30.078Z,30.57
2018-04-07T16:00:56.145Z,31.13
2018-04-07T16:03:21.933Z,31.35
2018-04-07T16:05:47.760Z,31.60
2018-04-07T16:08:13.580Z,31.94
2018-04-07T16:10:39.386Z,31.63
2018-04-07T16:13:05.198Z,31.59
2018-04-07T16:15:30.980Z,31.05
2018-04-07T16:17:56.773Z,31.81
2018-04-07T16:20:22.603Z,33.02
2018-04-07T16:22:48.399Z,32.73
2018-04-07T16:25:14.237Z,32.77
2018-04-07T16:27:40.016Z,32.94
2018-04-07T16:30:05.842Z,33.43
2018-04-07T16:32:31.902Z,33.22
2018-04-07T16:34:57.719Z,33.25
2018-04-07T16:37:23.536Z,33.84
2018-04-07T16:39:49.456Z,34.33
2018-04-07T16:42:15.239Z,34.75
2018-04-07T16:44:41.033Z,34.98
2018-04-07T16:47:06.828Z,34.90
2018-04-07T16:49:32.631Z,35.63
2018-04-07T16:51:58.452Z,35.45
2018-04-07T16:54:24.230Z,35.61
2018-04-07T16:56:50.078Z,35.78
2018-04-07T16:59:15.870Z,35.68
2018-04-07T17:01:41.667Z,36.10
2018-04-07T17:04:07.531Z,36.49
2018-04-07T17:06:33.364Z,36.38
2018-04-07T17:08:59.165Z,37.08
2018-04-07T17:11:24.958Z,37.01
2018-04-07T17:13:51.004Z,37.03
2018-04-07T17:16:16.804Z,37.45
2018-04-07T17:18:42.628Z,38.06
2018-04-07T17:21:08.447Z,37.86
2018-04-07T17:23:34.251Z,37.64
2018-04-07T17:26:00.027Z,38.05
2018-04-07T17:28:25.843Z,37.92
2018-04-07T17:30:51.617Z,37.88
2018-04-07T17:33:17.435Z,38.08
2018-04-07T17:35:43.467Z,38.70
2018-04-07T17:38:09.256Z,38.73
2018-04-07T17:40:35.051Z,38.70
2018-04-07T17:43:00.858Z,39.09
2018-04-07T17:45:26.667Z,39.38
2018-04-07T17:47:52.465Z,39.17
2018-04-07T17:50:18.291Z,39.52
2018-04-07T17:52:44.361Z,39.67
2018-04-07T17:55:10.183Z,39.88
2018-04-07T17:57:35.966Z,40.04
2018-04-07T18:00:01.790Z,40.10
2018-04-07T18:02:27.565Z,41.14
2018-04-07T18:04:53.397Z,40.21
2018-04-07T18:07:19.215Z,40.85
2018-04-07T18:09:45.024Z,40.15
2018-04-07T18:12:10.810Z,40.51
2018-04-07T18:14:36.635Z,40.53
2018-04-07T18:17:02.601Z,40.65
2018-04-07T18:19:28.410Z,40.74
2018-04-07T18:21:54.332Z,41.01
2018-04-07T18:24:20.148Z,41.25
2018-04-07T18:26:45.952Z,41.07
2018-04-07T18:29:11.754Z,40.97
2018-04-07T18:31:37.536Z,41.17
2018-04-07T18:34:03.344Z,41.19
2018-04-07T18:36:29.146Z,41.31
2018-04-07T18:38:54.944Z,41.28
2018-04-07T18:41:20.772Z,41.62
2018-04-07T18:43:46.575Z,41.33
2018-04-07T18:46:12.374Z,41.32
2018-04-07T18:48:38.167Z,41.31
2018-04-07T18:51:03.975Z,41.69
2018-04-07T18:53:29.773Z,41.21
2018-04-07T18:55:55.594Z,41.43
2018-04-07T18:58:21.420Z,41.42
2018-04-07T19:00:47.237Z,41.33
2018-04-07T19:03:13.058Z,41.40
2018-04-07T19:05:38.853Z,41.62
2018-04-07T19:08:04.672Z,41.46
2018-04-07T19:10:30.499Z,41.37
2018-04-07T19:12:56.296Z,41.48
2018-04-07T19:15:22.099Z,41.65
2018-04-07T19:17:48.752Z,41.97
2018-04-07T19:20:14.545Z,41.72
2018-04-07T19:22:40.341Z,42.19
2018-04-07T19:25:06.148Z,41.86
2018-04-07T19:27:31.936Z,42.13
2018-04-07T19:29:57.743Z,42.37
2018-04-07T19:32:23.568Z,42.18
2018-04-07T19:34:49.359Z,42.29
2018-04-07T19:37:15.183Z,42.54
2018-04-07T19:39:40.974Z,42.61
2018-04-07T19:42:06.790Z,42.65
2018-04-07T19:44:32.597Z,42.58
2018-04-07T19:46:58.387Z,42.67
2018-04-07T19:49:24.190Z,42.92
2018-04-07T19:51:50.022Z,42.98
2018-04-07T19:54:15.794Z,43.06
2018-04-07T19:56:41.589Z,43.05
2018-04-07T19:59:07.390Z,43.34
2018-04-07T20:01:33.174Z,43.48
2018-04-07T20:03:58.979Z,43.79
2018-04-07T20:06:24.794Z,43.56
2018-04-07T20:08:50.601Z,43.58
2018-04-07T20:11:16.393Z,43.71
2018-04-07T20:13:42.187Z,43.64
2018-04-07T20:16:08.016Z,43.85
2018-04-07T20:18:33.824Z,43.87
2018-04-07T20:20:59.631Z,43.92
2018-04-07T20:23:25.430Z,43.88
2018-04-07T20:25:51.247Z,43.80
2018-04-07T20:28:17.052Z,43.87
2018-04-07T20:30:42.836Z,43.86
2018-04-07T20:33:08.654Z,43.85
2018-04-07T20:35:34.463Z,44.20
2018-04-07T20:38:00.261Z,43.97
2018-04-07T20:40:26.342Z,44.02
2018-04-07T20:42:52.159Z,44.19
2018-04-07T20:45:17.960Z,44.01
2018-04-07T20:47:44.042Z,44.11
2018-04-07T20:50:09.828Z,44.28
2018-04-07T20:52:35.680Z,44.91
2018-04-07T20:55:01.497Z,44.43
2018-04-07T20:57:27.280Z,44.74
2018-04-07T20:59:53.077Z,44.76
2018-04-07T21:02:18.867Z,45.01
2018-04-07T21:04:44.673Z,45.07
2018-04-07T21:07:10.487Z,45.47
2018-04-07T21:09:36.294Z,45.24
2018-04-07T21:12:02.215Z,45.29
2018-04-07T21:14:28.045Z,45.40
2018-04-07T21:16:53.880Z,45.45
2018-04-07T21:19:19.671Z,45.63
2018-04-07T21:21:45.463Z,46.07
2018-04-07T21:24:11.271Z,47.27
2018-04-07T21:26:37.064Z,47.48
2018-04-07T21:29:02.869Z,45.25
2018-04-07T21:31:28.807Z,45.07
2018-04-07T21:33:54.621Z,43.40
2018-04-07T21:36:20.398Z,44.08
2018-04-07T21:38:46.195Z,45.20
2018-04-07T21:41:12.006Z,46.50
2018-04-07T21:43:37.804Z,45.16
2018-04-07T21:46:03.604Z,47.23
2018-04-07T21:48:29.424Z,45.13
2018-04-07T21:50:55.243Z,45.48
2018-04-07T21:53:21.043Z,45.46
2018-04-07T21:55:46.854Z,45.44
2018-04-07T21:58:12.654Z,46.49
2018-04-07T22:00:38.452Z,46.25
2018-04-07T22:03:04.263Z,46.59
2018-04-07T22:05:30.055Z,46.79
2018-04-07T22:07:55.840Z,45.98
2018-04-07T22:10:21.659Z,45.29
2018-04-07T22:12:47.480Z,45.65
2018-04-07T22:15:13.331Z,46.77
2018-04-07T22:17:39.165Z,46.04
2018-04-07T22:20:04.995Z,49.02
2018-04-07T22:22:30.844Z,46.23
2018-04-07T22:24:56.657Z,46.25
2018-04-07T22:27:22.461Z,45.95
2018-04-07T22:29:48.243Z,46.26
2018-04-07T22:32:14.041Z,46.84
2018-04-07T22:34:39.833Z,47.21
2018-04-07T22:37:05.733Z,46.91
2018-04-07T22:39:31.545Z,47.06
2018-04-07T22:41:57.373Z,48.21
2018-04-07T22:44:23.414Z,47.16
2018-04-07T22:46:49.225Z,47.55
2018-04-07T22:49:15.025Z,47.80
2018-04-07T22:51:40.820Z,47.52
2018-04-07T22:54:06.603Z,47.57
2018-04-07T22:56:32.399Z,48.52
2018-04-07T22:58:58.188Z,48.59
2018-04-07T23:01:23.992Z,48.25
2018-04-07T23:03:49.972Z,49.12
2018-04-07T23:06:15.760Z,48.93
2018-04-07T23:08:41.549Z,48.64
2018-04-07T23:11:07.347Z,48.23
2018-04-07T23:13:33.163Z,49.61
2018-04-07T23:15:58.962Z,48.93
2018-04-07T23:18:24.988Z,49.44
2018-04-07T23:20:50.809Z,48.93
2018-04-07T23:23:16.622Z,49.15
2018-04-07T23:25:42.675Z,49.17
2018-04-07T23:28:08.495Z,50.62
2018-04-07T23:30:34.310Z,49.44
2018-04-07T23:33:00.140Z,50.08
2018-04-07T23:35:25.932Z,49.67
2018-04-07T23:37:53.001Z,51.28
2018-04-07T23:40:19.988Z,49.83
2018-04-07T23:42:46.519Z,51.76
2018-04-07T23:45:13.744Z,49.63
2018-04-07T23:47:40.535Z,50.36
2018-04-07T23:50:07.159Z,52.15
2018-04-07T23:52:34.003Z,50.88
2018-04-07T23:55:00.604Z,51.39
2018-04-07T23:57:27.494Z,50.46
2018-04-07T23:59:53.403Z,51.34
